Time;durP1;ratioP1;P1;durP2;ratioP2;P2;SDS_P1;SDS_P2;PMS_P1;PMS_P2;Temp;Humidity;BMP_temperature;BMP_pressure;BME280_temperature;BME280_humidity;BME280_pressure;Samples;Min_cycle;Max_cycle;Signal;HPM_P1;HPM_P2
2021/03/10 00:00:42;;;;;;;31.17;14.50;;;;;;;;;;5035143;28;20471;-73
2021/03/10 00:03:08;;;;;;;37.40;16.10;;;;;;;;;;5033268;28;20475;-75
2021/03/10 00:05:34;;;;;;;32.47;15.10;;;;;;;;;;5033305;28;20447;-75
2021/03/10 00:08:00;;;;;;;40.57;17.73;;;;;;;;;;5032656;28;20452;-74
2021/03/10 00:10:26;;;;;;;35.35;15.20;;;;;;;;;;5040069;28;20515;-74
2021/03/10 00:12:52;;;;;;;36.40;16.00;;;;;;;;;;5036399;28;20270;-76
2021/03/10 00:15:18;;;;;;;38.00;17.17;;;;;;;;;;5036471;28;20441;-75
2021/03/10 00:17:44;;;;;;;29.07;14.30;;;;;;;;;;5036178;28;20206;-74
2021/03/10 00:20:11;;;;;;;34.75;15.27;;;;;;;;;;5036024;28;20443;-75
2021/03/10 00:22:38;;;;;;;32.67;14.77;;;;;;;;;;5036057;28;20289;-74
2021/03/10 00:25:05;;;;;;;42.50;16.35;;;;;;;;;;5036129;28;20677;-74
2021/03/10 00:27:31;;;;;;;35.65;14.90;;;;;;;;;;5035903;28;20287;-75
2021/03/10 00:29:58;;;;;;;32.38;15.38;;;;;;;;;;5043760;28;20217;-75
2021/03/10 00:32:26;;;;;;;29.77;15.43;;;;;;;;;;5055722;28;20226;-76
2021/03/10 00:34:52;;;;;;;32.97;15.82;;;;;;;;;;5051185;28;20234;-74
2021/03/10 00:37:18;;;;;;;35.15;16.52;;;;;;;;;;5055686;28;20186;-75
2021/03/10 00:39:44;;;;;;;30.52;16.90;;;;;;;;;;5052061;28;20638;-74
2021/03/10 00:42:11;;;;;;;32.92;16.10;;;;;;;;;;5043702;28;20177;-73
2021/03/10 00:44:37;;;;;;;33.03;15.35;;;;;;;;;;5054714;28;20200;-73
2021/03/10 00:47:04;;;;;;;38.08;16.42;;;;;;;;;;5054778;28;20249;-75
2021/03/10 00:49:30;;;;;;;29.38;15.85;;;;;;;;;;5054682;28;20204;-74
2021/03/10 00:51:55;;;;;;;37.20;16.27;;;;;;;;;;5055005;28;20246;-75
2021/03/10 00:54:21;;;;;;;37.33;16.70;;;;;;;;;;5054340;28;20468;-73
2021/03/10 00:56:47;;;;;;;38.60;17.55;;;;;;;;;;5049735;28;20440;-73
2021/03/10 00:59:14;;;;;;;37.17;17.40;;;;;;;;;;5054954;28;20287;-73
2021/03/10 01:01:40;;;;;;;33.88;15.93;;;;;;;;;;5055382;28;20494;-76
2021/03/10 01:04:06;;;;;;;36.47;16.25;;;;;;;;;;5048410;28;20280;-75
2021/03/10 01:06:32;;;;;;;35.37;17.40;;;;;;;;;;5035037;28;20186;-75
2021/03/10 01:08:58;;;;;;;37.70;15.80;;;;;;;;;;5040776;28;20565;-76
2021/03/10 01:11:24;;;;;;;39.50;15.13;;;;;;;;;;5054387;28;20200;-75
2021/03/10 01:13:50;;;;;;;44.27;14.63;;;;;;;;;;5051356;28;20958;-75
2021/03/10 01:16:17;;;;;;;34.55;16.77;;;;;;;;;;5054247;28;20451;-74
2021/03/10 01:18:43;;;;;;;31.45;17.25;;;;;;;;;;5047803;28;20226;-74
2021/03/10 01:21:09;;;;;;;33.77;15.67;;;;;;;;;;5033781;28;20554;-74
2021/03/10 01:23:34;;;;;;;33.07;16.97;;;;;;;;;;5040052;28;20558;-75
2021/03/10 01:26:01;;;;;;;33.13;16.20;;;;;;;;;;5054834;28;20515;-75
2021/03/10 01:28:26;;;;;;;34.38;17.95;;;;;;;;;;5053980;28;20939;-75
2021/03/10 01:30:52;;;;;;;35.43;16.80;;;;;;;;;;5054526;28;20240;-74
2021/03/10 01:33:19;;;;;;;33.13;16.07;;;;;;;;;;5054217;28;20574;-73
2021/03/10 01:35:45;;;;;;;37.90;17.05;;;;;;;;;;5034366;28;21029;-73
2021/03/10 01:38:11;;;;;;;37.70;17.50;;;;;;;;;;5034215;28;20199;-75
2021/03/10 01:40:37;;;;;;;40.55;18.42;;;;;;;;;;5049229;28;20196;-74
2021/03/10 01:43:04;;;;;;;34.05;16.67;;;;;;;;;;5048384;28;20193;-73
2021/03/10 01:45:30;;;;;;;43.50;17.67;;;;;;;;;;5034660;28;20193;-75
2021/03/10 01:47:56;;;;;;;32.55;16.42;;;;;;;;;;5034528;28;20650;-74
2021/03/10 01:50:24;;;;;;;34.83;16.58;;;;;;;;;;5050719;28;20208;-76
2021/03/10 01:52:50;;;;;;;33.47;16.20;;;;;;;;;;5053755;28;20219;-74
2021/03/10 01:55:16;;;;;;;36.43;17.10;;;;;;;;;;5053401;28;20223;-75
2021/03/10 01:57:42;;;;;;;36.03;17.07;;;;;;;;;;5054120;28;20429;-76
2021/03/10 02:00:09;;;;;;;32.70;18.58;;;;;;;;;;5039230;28;20851;-75
2021/03/10 02:02:35;;;;;;;33.53;15.70;;;;;;;;;;5033844;28;20636;-75
2021/03/10 02:05:01;;;;;;;38.58;18.02;;;;;;;;;;5034210;28;20279;-74
2021/03/10 02:07:32;;;;;;;40.00;17.95;;;;;;;;;;5034263;28;20287;-75
2021/03/10 02:10:02;;;;;;;39.63;16.98;;;;;;;;;;5033917;28;20255;-74
2021/03/10 02:12:34;;;;;;;37.20;16.50;;;;;;;;;;5053356;28;20240;-76
2021/03/10 02:15:04;;;;;;;36.78;15.02;;;;;;;;;;5053879;28;20268;-75
2021/03/10 02:17:33;;;;;;;30.60;15.07;;;;;;;;;;5053498;28;20228;-75
2021/03/10 02:20:03;;;;;;;33.90;15.52;;;;;;;;;;5036981;28;20245;-75
2021/03/10 02:22:42;;;;;;;35.75;16.42;;;;;;;;;;5035997;28;20261;-75
2021/03/10 02:25:11;;;;;;;32.95;15.77;;;;;;;;;;5033689;28;20188;-74
2021/03/10 02:27:41;;;;;;;34.08;16.85;;;;;;;;;;5033348;28;20195;-74
2021/03/10 02:30:08;;;;;;;31.55;14.95;;;;;;;;;;5033421;28;20225;-75
2021/03/10 02:32:34;;;;;;;30.30;15.82;;;;;;;;;;5033176;28;20218;-75
2021/03/10 02:35:01;;;;;;;35.70;16.83;;;;;;;;;;5033346;28;20233;-75
2021/03/10 02:37:27;;;;;;;36.13;14.15;;;;;;;;;;5033281;28;20285;-74
2021/03/10 02:39:53;;;;;;;37.05;19.17;;;;;;;;;;5033597;28;20288;-75
2021/03/10 02:42:19;;;;;;;33.38;14.50;;;;;;;;;;5033280;28;20200;-74
2021/03/10 02:44:46;;;;;;;36.90;18.23;;;;;;;;;;5043512;28;20523;-75
2021/03/10 02:47:13;;;;;;;40.20;17.52;;;;;;;;;;5052776;28;20192;-75
2021/03/10 02:49:39;;;;;;;33.55;17.08;;;;;;;;;;5038799;28;20267;-74
2021/03/10 02:52:05;;;;;;;35.72;15.52;;;;;;;;;;5034795;28;20334;-75
2021/03/10 02:54:32;;;;;;;33.92;14.95;;;;;;;;;;5050798;28;20578;-74
2021/03/10 02:56:58;;;;;;;33.03;15.38;;;;;;;;;;5052946;28;20242;-75
2021/03/10 02:59:24;;;;;;;37.35;16.52;;;;;;;;;;5052016;28;20203;-73
2021/03/10 03:01:51;;;;;;;36.47;16.20;;;;;;;;;;5039731;28;20191;-76
2021/03/10 03:04:17;;;;;;;42.08;17.75;;;;;;;;;;5043363;28;20434;-74
2021/03/10 03:06:42;;;;;;;32.70;15.23;;;;;;;;;;5052279;28;20681;-76
2021/03/10 03:09:08;;;;;;;33.83;17.07;;;;;;;;;;5052636;28;20490;-75
2021/03/10 03:11:34;;;;;;;32.03;15.60;;;;;;;;;;5052835;28;20432;-74
2021/03/10 03:14:02;;;;;;;36.08;16.63;;;;;;;;;;5052218;28;20517;-75
2021/03/10 03:16:29;;;;;;;39.55;16.85;;;;;;;;;;5052110;28;20187;-75
2021/03/10 03:18:55;;;;;;;39.38;16.35;;;;;;;;;;5042580;28;20197;-75
2021/03/10 03:21:22;;;;;;;31.75;14.75;;;;;;;;;;5032525;28;20193;-74
2021/03/10 03:23:49;;;;;;;38.80;16.73;;;;;;;;;;5033587;28;20218;-75
2021/03/10 03:26:16;;;;;;;36.45;17.10;;;;;;;;;;5032654;28;20209;-76
2021/03/10 03:28:42;;;;;;;35.97;16.05;;;;;;;;;;5032591;28;20226;-75
2021/03/10 03:31:08;;;;;;;32.25;14.85;;;;;;;;;;5033791;28;20625;-75
2021/03/10 03:33:34;;;;;;;36.38;16.33;;;;;;;;;;5032265;28;20224;-74
2021/03/10 03:36:01;;;;;;;30.17;15.10;;;;;;;;;;5031822;28;20265;-75
2021/03/10 03:38:28;;;;;;;33.38;16.25;;;;;;;;;;5032422;28;20193;-75
2021/03/10 03:40:54;;;;;;;32.20;15.20;;;;;;;;;;5032238;28;20214;-75
2021/03/10 03:43:20;;;;;;;32.80;14.63;;;;;;;;;;5033488;28;20191;-74
2021/03/10 03:45:46;;;;;;;32.10;15.07;;;;;;;;;;5052147;28;20233;-74
2021/03/10 03:48:12;;;;;;;36.63;16.70;;;;;;;;;;5050512;28;20649;-73
2021/03/10 03:50:40;;;;;;;41.58;16.77;;;;;;;;;;5042016;28;20483;-75
2021/03/10 03:53:07;;;;;;;37.85;14.95;;;;;;;;;;5042151;28;20202;-75
2021/03/10 03:55:34;;;;;;;32.88;16.85;;;;;;;;;;5051774;28;20295;-75
2021/03/10 03:58:00;;;;;;;32.17;13.40;;;;;;;;;;5050772;28;20211;-74
2021/03/10 04:00:26;;;;;;;40.47;16.40;;;;;;;;;;5044414;28;20652;-74
2021/03/10 04:02:52;;;;;;;37.33;16.92;;;;;;;;;;5051974;28;20914;-74
2021/03/10 04:05:19;;;;;;;29.63;14.85;;;;;;;;;;5051215;28;20286;-74
2021/03/10 04:07:46;;;;;;;32.80;16.02;;;;;;;;;;5047413;28;20312;-74
2021/03/10 04:10:13;;;;;;;31.50;15.02;;;;;;;;;;5037562;28;20271;-75
2021/03/10 04:12:39;;;;;;;34.25;17.40;;;;;;;;;;5051566;28;20312;-75
2021/03/10 04:15:05;;;;;;;31.83;14.23;;;;;;;;;;5049204;28;20260;-75
2021/03/10 04:17:31;;;;;;;33.90;15.98;;;;;;;;;;5050891;28;20529;-75
2021/03/10 04:19:57;;;;;;;31.52;15.95;;;;;;;;;;5051195;28;20200;-75
2021/03/10 04:22:23;;;;;;;33.20;15.97;;;;;;;;;;5051745;28;20192;-74
2021/03/10 04:24:49;;;;;;;31.20;15.77;;;;;;;;;;5051221;28;20447;-74
2021/03/10 04:27:16;;;;;;;39.03;17.00;;;;;;;;;;5051269;28;20823;-74
2021/03/10 04:29:41;;;;;;;41.20;16.58;;;;;;;;;;5049382;28;20977;-73
2021/03/10 04:32:07;;;;;;;31.43;16.70;;;;;;;;;;5046834;28;20190;-76
2021/03/10 04:34:34;;;;;;;34.92;17.70;;;;;;;;;;5032053;28;20447;-74
2021/03/10 04:36:59;;;;;;;35.78;16.90;;;;;;;;;;5031411;28;20267;-75
2021/03/10 04:39:25;;;;;;;33.20;16.80;;;;;;;;;;5031656;28;20183;-75
2021/03/10 04:41:51;;;;;;;33.43;18.70;;;;;;;;;;5031576;28;20496;-75
2021/03/10 04:44:18;;;;;;;34.57;16.77;;;;;;;;;;5031781;28;20527;-75
2021/03/10 04:46:44;;;;;;;37.50;16.85;;;;;;;;;;5037250;28;21043;-74
2021/03/10 04:49:10;;;;;;;34.57;16.30;;;;;;;;;;5041232;28;20189;-75
2021/03/10 04:51:36;;;;;;;39.00;17.10;;;;;;;;;;5050855;28;20516;-73
2021/03/10 04:54:02;;;;;;;37.33;17.55;;;;;;;;;;5051301;28;20529;-74
2021/03/10 04:56:28;;;;;;;34.10;15.20;;;;;;;;;;5050805;28;20200;-73
2021/03/10 04:58:54;;;;;;;35.47;17.40;;;;;;;;;;5055468;28;20430;-75
2021/03/10 05:01:20;;;;;;;33.93;15.33;;;;;;;;;;5042737;28;20437;-75
2021/03/10 05:03:46;;;;;;;32.20;16.13;;;;;;;;;;5054759;28;20447;-75
2021/03/10 05:06:12;;;;;;;42.93;17.27;;;;;;;;;;5054670;28;20225;-75
2021/03/10 05:08:38;;;;;;;30.88;15.60;;;;;;;;;;5055454;28;20525;-74
2021/03/10 05:11:04;;;;;;;24.50;14.97;;;;;;;;;;5054652;28;20199;-74
2021/03/10 05:13:30;;;;;;;52.17;18.97;;;;;;;;;;5055227;28;20470;-74
2021/03/10 05:15:56;;;;;;;37.47;16.57;;;;;;;;;;5041934;28;20517;-75
2021/03/10 05:18:23;;;;;;;36.57;17.03;;;;;;;;;;5035061;28;20471;-74
2021/03/10 05:20:49;;;;;;;30.33;15.85;;;;;;;;;;5048120;28;20934;-75
2021/03/10 05:23:14;;;;;;;34.07;16.30;;;;;;;;;;5052936;28;20198;-75
2021/03/10 05:25:40;;;;;;;33.20;16.53;;;;;;;;;;5054641;28;20808;-75
2021/03/10 05:28:06;;;;;;;34.37;17.03;;;;;;;;;;5054192;28;20483;-76
2021/03/10 05:30:32;;;;;;;33.00;16.17;;;;;;;;;;5053968;28;20451;-74
2021/03/10 05:32:58;;;;;;;37.43;19.00;;;;;;;;;;5052623;28;20590;-74
2021/03/10 05:35:25;;;;;;;31.33;15.60;;;;;;;;;;5052697;28;20489;-74
2021/03/10 05:37:51;;;;;;;32.67;16.10;;;;;;;;;;5052613;28;20553;-75
2021/03/10 05:40:18;;;;;;;27.80;15.07;;;;;;;;;;5054066;28;20282;-74
2021/03/10 05:42:44;;;;;;;41.13;16.73;;;;;;;;;;5053653;28;20564;-74
2021/03/10 05:45:10;;;;;;;31.95;16.00;;;;;;;;;;5052454;28;20190;-75
2021/03/10 05:47:36;;;;;;;36.67;16.95;;;;;;;;;;5039087;28;20673;-75
2021/03/10 05:50:03;;;;;;;44.80;16.07;;;;;;;;;;5054211;28;20297;-75
2021/03/10 05:52:32;;;;;;;34.17;16.05;;;;;;;;;;5053198;28;21009;-75
2021/03/10 05:54:59;;;;;;;41.10;18.02;;;;;;;;;;5053847;28;20724;-75
2021/03/10 05:57:25;;;;;;;33.17;15.55;;;;;;;;;;5050989;28;20216;-75
2021/03/10 05:59:51;;;;;;;35.80;16.90;;;;;;;;;;5035091;28;20208;-75
2021/03/10 06:02:18;;;;;;;38.83;18.17;;;;;;;;;;5052863;28;20450;-75
2021/03/10 06:04:44;;;;;;;39.22;19.77;;;;;;;;;;5054133;28;20648;-75
2021/03/10 06:07:20;;;;;;;34.30;15.45;;;;;;;;;;5053499;28;20982;-75
2021/03/10 06:09:56;;;;;;;48.70;21.13;;;;;;;;;;5034075;28;20689;-75
2021/03/10 06:12:22;;;;;;;41.25;17.88;;;;;;;;;;5046678;28;20239;-74
2021/03/10 06:14:58;;;;;;;40.27;17.07;;;;;;;;;;5049578;28;20197;-75
2021/03/10 06:17:24;;;;;;;40.85;18.27;;;;;;;;;;5050249;28;20468;-74
2021/03/10 06:19:51;;;;;;;30.10;16.20;;;;;;;;;;5033691;28;20211;-74
2021/03/10 06:22:18;;;;;;;33.35;15.88;;;;;;;;;;5033190;28;20439;-75
2021/03/10 06:24:44;;;;;;;41.78;18.85;;;;;;;;;;5033084;28;20714;-75
2021/03/10 06:27:11;;;;;;;46.70;17.88;;;;;;;;;;5033223;28;20213;-75
2021/03/10 06:29:37;;;;;;;41.47;17.25;;;;;;;;;;5032965;28;20352;-74
2021/03/10 06:32:04;;;;;;;39.90;19.25;;;;;;;;;;5050208;28;20195;-76
2021/03/10 06:34:30;;;;;;;42.33;17.95;;;;;;;;;;5053262;28;20252;-73
2021/03/10 06:36:56;;;;;;;39.75;19.23;;;;;;;;;;5053033;28;20239;-75
2021/03/10 06:39:24;;;;;;;42.03;18.83;;;;;;;;;;5050971;28;20909;-73
2021/03/10 06:41:50;;;;;;;35.45;16.52;;;;;;;;;;5053135;28;20480;-75
2021/03/10 06:44:18;;;;;;;45.70;19.13;;;;;;;;;;5052005;28;20188;-74
2021/03/10 06:46:51;;;;;;;28.15;16.33;;;;;;;;;;5053150;28;20761;-75
2021/03/10 06:49:17;;;;;;;40.75;18.17;;;;;;;;;;5053362;28;20642;-75
2021/03/10 06:51:50;;;;;;;40.95;20.42;;;;;;;;;;5052877;28;20195;-74
2021/03/10 06:54:16;;;;;;;44.90;19.88;;;;;;;;;;5052725;28;20541;-74
2021/03/10 06:56:42;;;;;;;38.03;19.43;;;;;;;;;;5053033;28;20202;-76
2021/03/10 06:59:08;;;;;;;41.67;20.10;;;;;;;;;;5052803;28;20462;-75
2021/03/10 07:01:38;;;;;;;43.63;19.60;;;;;;;;;;5052746;28;20439;-74
2021/03/10 07:04:04;;;;;;;38.53;17.92;;;;;;;;;;5052757;28;20427;-74
2021/03/10 07:06:30;;;;;;;43.80;19.85;;;;;;;;;;5052574;28;20196;-73
2021/03/10 07:08:57;;;;;;;43.72;18.92;;;;;;;;;;5053208;28;20197;-75
2021/03/10 07:11:23;;;;;;;41.45;19.50;;;;;;;;;;5051794;28;20239;-73
2021/03/10 07:13:49;;;;;;;45.22;19.40;;;;;;;;;;5050879;28;20362;-74
2021/03/10 07:16:15;;;;;;;43.42;20.15;;;;;;;;;;5052865;28;20624;-73
2021/03/10 07:18:41;;;;;;;37.87;19.40;;;;;;;;;;5051419;28;20193;-75
2021/03/10 07:21:09;;;;;;;51.45;19.50;;;;;;;;;;5053327;28;20522;-74
2021/03/10 07:23:38;;;;;;;36.65;21.33;;;;;;;;;;5052903;28;20193;-73
2021/03/10 07:26:04;;;;;;;43.40;17.80;;;;;;;;;;5052313;28;20195;-74
2021/03/10 07:28:31;;;;;;;43.33;17.75;;;;;;;;;;5052075;28;20640;-75
2021/03/10 07:30:57;;;;;;;41.70;19.73;;;;;;;;;;5051956;28;20195;-74
2021/03/10 07:33:24;;;;;;;32.50;16.98;;;;;;;;;;5052480;28;20323;-76
2021/03/10 07:35:52;;;;;;;40.47;20.95;;;;;;;;;;5051881;28;20252;-74
2021/03/10 07:38:19;;;;;;;41.45;18.83;;;;;;;;;;5051679;28;20196;-76
2021/03/10 07:40:58;;;;;;;32.40;17.48;;;;;;;;;;5051690;28;20530;-75
2021/03/10 07:43:33;;;;;;;37.60;20.02;;;;;;;;;;5052160;28;20192;-75
2021/03/10 07:45:59;;;;;;;32.88;17.80;;;;;;;;;;5052652;28;20189;-74
2021/03/10 07:48:29;;;;;;;38.47;20.43;;;;;;;;;;5052040;28;20221;-75
2021/03/10 07:50:56;;;;;;;38.03;17.73;;;;;;;;;;5052156;28;20440;-76
2021/03/10 07:53:22;;;;;;;45.95;18.85;;;;;;;;;;5052230;28;20217;-75
2021/03/10 07:55:49;;;;;;;40.63;18.13;;;;;;;;;;5051963;28;20673;-73
2021/03/10 07:58:25;;;;;;;37.83;16.80;;;;;;;;;;5052593;28;20782;-73
2021/03/10 08:00:51;;;;;;;40.90;19.90;;;;;;;;;;5051563;28;20270;-73
2021/03/10 08:03:26;;;;;;;37.60;18.50;;;;;;;;;;5051419;28;20568;-74
2021/03/10 08:05:59;;;;;;;36.97;18.20;;;;;;;;;;5051381;28;20789;-74
2021/03/10 08:08:32;;;;;;;35.25;18.08;;;;;;;;;;5051554;28;20192;-73
2021/03/10 08:11:05;;;;;;;39.92;17.48;;;;;;;;;;5051759;28;20194;-75
2021/03/10 08:13:31;;;;;;;31.27;18.42;;;;;;;;;;5051799;28;21001;-73
2021/03/10 08:16:00;;;;;;;49.95;19.42;;;;;;;;;;5051011;28;20326;-74
2021/03/10 08:18:27;;;;;;;42.58;20.42;;;;;;;;;;5051052;28;20284;-74
2021/03/10 08:20:54;;;;;;;41.00;17.13;;;;;;;;;;5052045;28;20189;-76
2021/03/10 08:23:21;;;;;;;41.65;17.80;;;;;;;;;;5051353;28;20201;-73
2021/03/10 08:25:50;;;;;;;39.20;18.20;;;;;;;;;;5051622;28;20181;-73
2021/03/10 08:28:16;;;;;;;42.67;18.10;;;;;;;;;;5051782;28;20241;-73
2021/03/10 08:30:43;;;;;;;37.13;17.60;;;;;;;;;;5054478;28;20212;-74
2021/03/10 08:33:10;;;;;;;39.28;19.38;;;;;;;;;;5055267;28;20483;-74
2021/03/10 08:35:36;;;;;;;40.53;19.85;;;;;;;;;;5054845;28;20233;-76
2021/03/10 08:38:03;;;;;;;41.00;20.52;;;;;;;;;;5055686;28;20580;-76
2021/03/10 08:40:31;;;;;;;44.13;19.92;;;;;;;;;;5055321;28;20240;-74
2021/03/10 08:42:57;;;;;;;45.55;21.00;;;;;;;;;;5054768;28;20214;-74
2021/03/10 08:45:24;;;;;;;42.78;17.98;;;;;;;;;;5055223;28;20644;-74
2021/03/10 08:47:58;;;;;;;45.28;21.30;;;;;;;;;;5055228;28;20205;-73
2021/03/10 08:50:27;;;;;;;49.60;21.38;;;;;;;;;;5054818;28;20569;-73
2021/03/10 08:52:53;;;;;;;34.78;17.83;;;;;;;;;;5055105;28;20244;-74
2021/03/10 08:55:23;;;;;;;39.57;18.97;;;;;;;;;;5054063;28;20197;-73
2021/03/10 08:57:50;;;;;;;38.10;20.30;;;;;;;;;;5054540;28;20440;-72
2021/03/10 09:00:20;;;;;;;34.58;20.00;;;;;;;;;;5055131;28;20654;-75
2021/03/10 09:02:48;;;;;;;38.55;19.15;;;;;;;;;;5054316;28;20272;-75
2021/03/10 09:05:15;;;;;;;44.03;21.10;;;;;;;;;;5054044;28;20197;-75
2021/03/10 09:07:41;;;;;;;45.00;20.27;;;;;;;;;;5053689;28;20194;-74
2021/03/10 09:10:09;;;;;;;33.30;18.05;;;;;;;;;;5054940;28;20205;-74
2021/03/10 09:12:39;;;;;;;52.60;19.98;;;;;;;;;;5054735;28;20649;-74
2021/03/10 09:15:09;;;;;;;37.30;19.25;;;;;;;;;;5055303;28;20273;-72
2021/03/10 09:17:36;;;;;;;36.80;18.45;;;;;;;;;;5055092;28;20626;-73
2021/03/10 09:20:03;;;;;;;43.72;20.23;;;;;;;;;;5054259;28;20191;-73
2021/03/10 09:22:29;;;;;;;38.60;18.80;;;;;;;;;;5054713;28;20215;-74
2021/03/10 09:24:55;;;;;;;37.53;16.77;;;;;;;;;;5054637;28;20201;-74
2021/03/10 09:27:23;;;;;;;43.35;19.10;;;;;;;;;;5054392;28;20470;-74
2021/03/10 09:29:49;;;;;;;40.40;18.20;;;;;;;;;;5054517;28;20300;-74
2021/03/10 09:32:16;;;;;;;43.28;20.98;;;;;;;;;;5054375;28;20202;-74
2021/03/10 09:34:46;;;;;;;42.15;20.80;;;;;;;;;;5053589;28;20205;-73
2021/03/10 09:37:13;;;;;;;43.85;17.80;;;;;;;;;;5054121;28;20194;-75
2021/03/10 09:39:40;;;;;;;49.13;21.88;;;;;;;;;;5054558;28;20291;-74
2021/03/10 09:42:06;;;;;;;45.40;19.80;;;;;;;;;;5053592;28;20186;-75
2021/03/10 09:44:40;;;;;;;36.58;20.60;;;;;;;;;;5054471;28;20205;-74
2021/03/10 09:47:11;;;;;;;45.55;20.75;;;;;;;;;;5054486;28;20193;-74
2021/03/10 09:49:44;;;;;;;41.75;19.27;;;;;;;;;;5054761;28;20186;-73
2021/03/10 09:52:10;;;;;;;37.50;18.25;;;;;;;;;;5054097;28;20201;-73
2021/03/10 09:54:46;;;;;;;39.87;19.83;;;;;;;;;;5053621;28;20219;-73
2021/03/10 09:57:19;;;;;;;45.35;18.50;;;;;;;;;;5054133;28;20433;-74
2021/03/10 09:59:45;;;;;;;41.90;19.23;;;;;;;;;;5053787;28;20631;-73
2021/03/10 10:02:14;;;;;;;38.57;17.33;;;;;;;;;;5053166;28;20202;-73
2021/03/10 10:04:40;;;;;;;38.67;17.17;;;;;;;;;;5054134;28;20459;-73
2021/03/10 10:07:08;;;;;;;35.38;18.20;;;;;;;;;;5053545;28;20209;-73
2021/03/10 10:09:34;;;;;;;43.40;20.50;;;;;;;;;;5043896;28;20280;-74
2021/03/10 10:12:00;;;;;;;42.67;19.27;;;;;;;;;;5033584;28;20279;-71
2021/03/10 10:14:26;;;;;;;44.70;17.73;;;;;;;;;;5033438;28;20488;-73
2021/03/10 10:16:52;;;;;;;37.67;18.10;;;;;;;;;;5033540;28;20439;-73
2021/03/10 10:19:18;;;;;;;41.77;16.87;;;;;;;;;;5049018;28;20445;-72
2021/03/10 10:21:47;;;;;;;37.53;19.13;;;;;;;;;;5052588;28;20806;-73
2021/03/10 10:24:14;;;;;;;37.88;19.45;;;;;;;;;;5053261;28;20607;-73
2021/03/10 10:26:40;;;;;;;35.70;18.55;;;;;;;;;;5053064;28;20243;-74
2021/03/10 10:29:06;;;;;;;35.67;18.75;;;;;;;;;;5053182;28;20605;-73
2021/03/10 10:31:32;;;;;;;39.43;19.77;;;;;;;;;;5053251;28;20298;-73
2021/03/10 10:33:58;;;;;;;39.53;19.23;;;;;;;;;;5052913;28;20554;-73
2021/03/10 10:36:24;;;;;;;44.10;18.63;;;;;;;;;;5052996;28;20255;-73
2021/03/10 10:38:50;;;;;;;42.03;21.93;;;;;;;;;;5053246;28;20477;-72
2021/03/10 10:41:17;;;;;;;42.58;18.08;;;;;;;;;;5052912;28;20522;-74
2021/03/10 10:43:42;;;;;;;33.67;17.27;;;;;;;;;;5052117;28;20193;-74
2021/03/10 10:46:09;;;;;;;40.87;18.70;;;;;;;;;;5052850;28;20193;-73
2021/03/10 10:48:35;;;;;;;40.55;19.30;;;;;;;;;;5053414;28;20427;-73
2021/03/10 10:51:00;;;;;;;32.13;17.07;;;;;;;;;;5052955;28;20952;-72
2021/03/10 10:53:26;;;;;;;42.70;17.90;;;;;;;;;;5052539;28;20945;-72
2021/03/10 10:55:52;;;;;;;36.00;16.20;;;;;;;;;;5053379;28;20913;-73
2021/03/10 10:58:19;;;;;;;44.43;19.47;;;;;;;;;;5052521;28;20954;-73
2021/03/10 11:00:45;;;;;;;39.03;17.40;;;;;;;;;;5052807;28;20535;-74
2021/03/10 11:03:11;;;;;;;32.00;17.30;;;;;;;;;;5052002;28;20272;-74
2021/03/10 11:05:37;;;;;;;33.30;17.70;;;;;;;;;;5051957;28;20953;-74
2021/03/10 11:08:03;;;;;;;35.33;16.80;;;;;;;;;;5052281;28;20448;-75
2021/03/10 11:10:29;;;;;;;35.25;18.13;;;;;;;;;;5052445;28;20525;-76
2021/03/10 11:12:55;;;;;;;34.33;16.77;;;;;;;;;;5052108;28;20185;-75
2021/03/10 11:15:21;;;;;;;34.77;17.23;;;;;;;;;;5051685;28;20476;-73
2021/03/10 11:17:47;;;;;;;36.95;18.05;;;;;;;;;;5052617;28;20494;-74
2021/03/10 11:20:14;;;;;;;35.57;17.83;;;;;;;;;;5052333;28;20611;-74
2021/03/10 11:22:40;;;;;;;45.22;18.88;;;;;;;;;;5052303;28;20902;-75
2021/03/10 11:25:06;;;;;;;32.80;16.33;;;;;;;;;;5052190;28;20287;-74
2021/03/10 11:27:32;;;;;;;32.38;17.70;;;;;;;;;;5052160;28;20471;-74
2021/03/10 11:29:58;;;;;;;36.53;18.33;;;;;;;;;;5051886;28;20196;-74
2021/03/10 11:32:25;;;;;;;34.55;17.20;;;;;;;;;;5051187;28;20452;-74
2021/03/10 11:34:51;;;;;;;32.08;15.98;;;;;;;;;;5051491;28;20217;-73
2021/03/10 11:37:18;;;;;;;29.20;15.90;;;;;;;;;;5051781;28;20192;-74
2021/03/10 11:39:44;;;;;;;36.83;16.88;;;;;;;;;;5051927;28;20522;-74
2021/03/10 11:42:10;;;;;;;35.33;18.13;;;;;;;;;;5052012;28;20209;-74
2021/03/10 11:44:36;;;;;;;38.17;18.20;;;;;;;;;;5051895;28;20428;-72
2021/03/10 11:47:02;;;;;;;35.23;16.47;;;;;;;;;;5051080;28;20440;-74
2021/03/10 11:49:29;;;;;;;30.50;15.27;;;;;;;;;;5052098;28;21170;-75
2021/03/10 11:51:55;;;;;;;31.10;16.10;;;;;;;;;;5051589;28;20201;-73
2021/03/10 11:54:22;;;;;;;34.03;16.13;;;;;;;;;;5051699;28;20573;-74
2021/03/10 11:56:48;;;;;;;36.38;16.45;;;;;;;;;;5052083;28;20882;-74
2021/03/10 11:59:14;;;;;;;28.30;14.17;;;;;;;;;;5052233;28;20239;-75
2021/03/10 12:01:40;;;;;;;33.97;14.50;;;;;;;;;;5051620;28;20895;-74
2021/03/10 12:04:06;;;;;;;30.70;14.52;;;;;;;;;;5052585;28;20432;-74
2021/03/10 12:06:33;;;;;;;32.33;16.20;;;;;;;;;;5057970;28;20201;-73
2021/03/10 12:08:59;;;;;;;26.73;15.52;;;;;;;;;;5058299;28;20451;-74
2021/03/10 12:11:25;;;;;;;35.73;13.97;;;;;;;;;;5058137;28;20253;-72
2021/03/10 12:13:51;;;;;;;30.27;13.80;;;;;;;;;;5058066;28;20980;-74
2021/03/10 12:16:17;;;;;;;26.05;14.05;;;;;;;;;;5058456;28;20427;-73
2021/03/10 12:18:43;;;;;;;23.50;13.30;;;;;;;;;;5057105;28;20246;-74
2021/03/10 12:21:09;;;;;;;33.50;17.20;;;;;;;;;;5058555;28;20833;-72
2021/03/10 12:23:36;;;;;;;24.73;12.17;;;;;;;;;;5058403;28;20427;-74
2021/03/10 12:26:02;;;;;;;28.48;12.75;;;;;;;;;;5058509;28;20951;-73
2021/03/10 12:28:28;;;;;;;25.67;13.38;;;;;;;;;;5057556;28;20190;-74
2021/03/10 12:30:54;;;;;;;29.90;12.70;;;;;;;;;;5057712;28;20204;-74
2021/03/10 12:33:20;;;;;;;22.23;11.05;;;;;;;;;;5057903;28;20479;-73
2021/03/10 12:35:46;;;;;;;21.60;12.13;;;;;;;;;;5057902;28;20249;-75
2021/03/10 12:38:12;;;;;;;25.20;10.63;;;;;;;;;;5058019;28;20187;-74
2021/03/10 12:40:38;;;;;;;19.00;10.90;;;;;;;;;;5057664;28;20475;-75
2021/03/10 12:43:07;;;;;;;22.85;11.45;;;;;;;;;;5058404;28;20450;-75
2021/03/10 12:45:33;;;;;;;21.13;10.45;;;;;;;;;;5058412;28;20623;-72
2021/03/10 12:47:59;;;;;;;19.23;10.35;;;;;;;;;;5058889;28;20193;-73
2021/03/10 12:50:26;;;;;;;20.70;11.43;;;;;;;;;;5057382;28;20248;-74
2021/03/10 12:52:52;;;;;;;33.47;15.07;;;;;;;;;;5057636;28;20498;-73
2021/03/10 12:55:18;;;;;;;18.13;10.43;;;;;;;;;;5058491;28;20196;-74
2021/03/10 12:57:45;;;;;;;21.83;10.67;;;;;;;;;;5057821;28;20639;-75
2021/03/10 13:00:12;;;;;;;25.67;13.02;;;;;;;;;;5057907;28;20443;-73
2021/03/10 13:02:38;;;;;;;22.17;10.38;;;;;;;;;;5058009;28;20198;-73
2021/03/10 13:05:06;;;;;;;21.88;10.88;;;;;;;;;;5058179;28;20397;-73
2021/03/10 13:07:32;;;;;;;18.40;9.38;;;;;;;;;;5058082;28;20194;-75
2021/03/10 13:09:58;;;;;;;19.75;10.70;;;;;;;;;;5057708;28;20261;-72
2021/03/10 13:12:24;;;;;;;17.17;9.27;;;;;;;;;;5057720;28;20197;-74
2021/03/10 13:14:51;;;;;;;18.88;9.30;;;;;;;;;;5057476;28;20522;-73
2021/03/10 13:17:17;;;;;;;18.30;10.35;;;;;;;;;;5055055;28;20204;-72
2021/03/10 13:19:43;;;;;;;16.37;9.83;;;;;;;;;;5055330;28;20577;-75
2021/03/10 13:22:09;;;;;;;19.73;10.37;;;;;;;;;;5054871;28;20760;-73
2021/03/10 13:24:35;;;;;;;17.53;9.40;;;;;;;;;;5054411;28;20442;-73
2021/03/10 13:27:01;;;;;;;18.05;9.60;;;;;;;;;;5054168;28;20503;-72
2021/03/10 13:29:27;;;;;;;24.70;11.23;;;;;;;;;;5054124;28;20336;-73
2021/03/10 13:31:54;;;;;;;15.90;9.10;;;;;;;;;;5054254;28;20503;-74
2021/03/10 13:34:20;;;;;;;20.75;10.30;;;;;;;;;;5054824;28;20582;-75
2021/03/10 13:36:46;;;;;;;17.90;8.80;;;;;;;;;;5054322;28;20352;-74
2021/03/10 13:39:12;;;;;;;20.57;10.47;;;;;;;;;;5054110;28;20213;-72
2021/03/10 13:41:38;;;;;;;16.88;8.43;;;;;;;;;;5054125;28;20432;-75
2021/03/10 13:44:05;;;;;;;18.90;11.30;;;;;;;;;;5054152;28;20602;-74
2021/03/10 13:46:31;;;;;;;19.70;10.32;;;;;;;;;;5054718;28;20432;-73
2021/03/10 13:48:57;;;;;;;18.40;9.43;;;;;;;;;;5053704;28;20204;-74
2021/03/10 13:51:23;;;;;;;15.40;7.78;;;;;;;;;;5053754;28;20518;-74
2021/03/10 13:53:51;;;;;;;20.25;9.57;;;;;;;;;;5054356;28;20257;-74
2021/03/10 13:56:17;;;;;;;26.23;10.93;;;;;;;;;;5053892;28;20217;-72
2021/03/10 13:58:43;;;;;;;20.13;9.60;;;;;;;;;;5053709;28;20178;-75
2021/03/10 14:01:09;;;;;;;16.60;8.23;;;;;;;;;;5053655;28;20488;-73
2021/03/10 14:03:35;;;;;;;17.90;10.18;;;;;;;;;;5054509;28;20229;-73
2021/03/10 14:06:02;;;;;;;15.80;9.00;;;;;;;;;;5053573;28;20189;-72
2021/03/10 14:08:28;;;;;;;18.00;8.35;;;;;;;;;;5054301;28;20464;-74
2021/03/10 14:10:54;;;;;;;21.80;10.40;;;;;;;;;;5053381;28;20203;-75
2021/03/10 14:13:20;;;;;;;19.37;8.43;;;;;;;;;;5053759;28;20566;-74
2021/03/10 14:15:46;;;;;;;22.15;7.72;;;;;;;;;;5053649;28;20480;-72